Time;durP1;ratioP1;P1;durP2;ratioP2;P2;SDS_P1;SDS_P2;PMS_P1;PMS_P2;Temp;Humidity;BMP_temperature;BMP_pressure;BME280_temperature;BME280_humidity;BME280_pressure;Samples;Min_cycle;Max_cycle;Signal;HPM_P1;HPM_P2
2022/06/27 00:00:46;;;;;;;18.50;14.60;;;;;;;;;;4934724;29;20234;-73
2022/06/27 00:03:15;;;;;;;16.02;14.52;;;;;;;;;;4935301;29;20211;-74
2022/06/27 00:05:44;;;;;;;16.02;14.52;;;;;;;;;;4935019;29;20282;-74
2022/06/27 00:08:13;;;;;;;15.77;14.18;;;;;;;;;;4935645;29;20298;-73
2022/06/27 00:10:42;;;;;;;14.75;13.45;;;;;;;;;;4935420;29;20291;-73
2022/06/27 00:13:12;;;;;;;16.65;14.15;;;;;;;;;;4935050;29;20803;-74
2022/06/27 00:15:40;;;;;;;15.02;13.50;;;;;;;;;;4934812;29;20235;-74
2022/06/27 00:18:09;;;;;;;15.35;13.80;;;;;;;;;;4934798;29;20214;-74
2022/06/27 00:20:37;;;;;;;14.75;13.45;;;;;;;;;;4935411;29;20231;-74
2022/06/27 00:23:06;;;;;;;15.07;13.63;;;;;;;;;;4935244;29;20214;-74
2022/06/27 00:25:34;;;;;;;15.25;13.65;;;;;;;;;;4938384;29;20699;-74
2022/06/27 00:28:03;;;;;;;14.77;13.32;;;;;;;;;;4938690;29;20616;-74
2022/06/27 00:30:32;;;;;;;14.35;12.95;;;;;;;;;;4937364;29;20203;-74
2022/06/27 00:33:01;;;;;;;13.15;12.02;;;;;;;;;;4938935;29;20674;-74
2022/06/27 00:35:29;;;;;;;13.52;12.18;;;;;;;;;;4938262;29;20231;-74
2022/06/27 00:37:58;;;;;;;14.35;12.98;;;;;;;;;;4938062;29;20239;-74
2022/06/27 00:40:26;;;;;;;13.32;12.15;;;;;;;;;;4938357;29;20278;-74
2022/06/27 00:42:55;;;;;;;12.98;11.93;;;;;;;;;;4937921;29;20219;-75
2022/06/27 00:45:23;;;;;;;12.35;11.32;;;;;;;;;;4936587;29;20231;-75
2022/06/27 00:47:53;;;;;;;12.75;11.65;;;;;;;;;;4938236;29;20211;-75
2022/06/27 00:50:21;;;;;;;12.07;11.07;;;;;;;;;;4938136;29;20199;-74
2022/06/27 00:52:50;;;;;;;12.13;11.00;;;;;;;;;;4938284;29;20211;-74
2022/06/27 00:55:18;;;;;;;11.80;10.80;;;;;;;;;;4937684;29;20290;-74
2022/06/27 00:57:47;;;;;;;13.18;12.00;;;;;;;;;;4937954;29;20278;-75
2022/06/27 01:00:15;;;;;;;12.25;11.15;;;;;;;;;;4937557;29;20651;-74
2022/06/27 01:02:44;;;;;;;12.07;11.13;;;;;;;;;;4937951;29;20211;-74
2022/06/27 01:05:14;;;;;;;12.30;11.25;;;;;;;;;;4937003;29;20234;-74
2022/06/27 01:07:42;;;;;;;11.30;10.40;;;;;;;;;;4937787;29;20214;-74
2022/06/27 01:10:11;;;;;;;12.95;11.85;;;;;;;;;;4937752;29;20204;-74
2022/06/27 01:12:41;;;;;;;12.63;11.63;;;;;;;;;;4937903;29;20210;-74
2022/06/27 01:15:10;;;;;;;12.13;11.13;;;;;;;;;;4937746;29;20231;-74
2022/06/27 01:17:38;;;;;;;12.18;11.18;;;;;;;;;;4937047;29;20660;-74
2022/06/27 01:20:08;;;;;;;12.48;11.38;;;;;;;;;;4937657;29;20226;-74
2022/06/27 01:22:37;;;;;;;12.57;11.48;;;;;;;;;;4936950;29;20211;-74
2022/06/27 01:25:07;;;;;;;11.70;10.70;;;;;;;;;;4936665;29;20696;-75
2022/06/27 01:27:36;;;;;;;11.00;10.10;;;;;;;;;;4937520;29;20211;-75
2022/06/27 01:30:06;;;;;;;11.50;10.50;;;;;;;;;;4937446;29;20203;-75
2022/06/27 01:32:34;;;;;;;11.52;10.52;;;;;;;;;;4936870;29;20578;-75
2022/06/27 01:35:04;;;;;;;11.85;10.85;;;;;;;;;;4936167;29;20317;-74
2022/06/27 01:37:32;;;;;;;12.93;11.73;;;;;;;;;;4937452;29;20214;-74
2022/06/27 01:40:02;;;;;;;12.45;11.35;;;;;;;;;;4937502;29;20282;-75
2022/06/27 01:42:31;;;;;;;12.15;11.05;;;;;;;;;;4937256;29;20219;-75
2022/06/27 01:44:59;;;;;;;12.38;11.32;;;;;;;;;;4937022;29;20238;-75
2022/06/27 01:47:29;;;;;;;12.75;11.55;;;;;;;;;;4936017;29;20294;-75
2022/06/27 01:49:58;;;;;;;12.60;11.50;;;;;;;;;;4937392;29;20218;-75
2022/06/27 01:52:27;;;;;;;13.13;12.02;;;;;;;;;;4937258;29;20207;-74
2022/06/27 01:54:55;;;;;;;13.13;11.93;;;;;;;;;;4936739;29;20239;-75
2022/06/27 01:57:25;;;;;;;12.95;11.65;;;;;;;;;;4937118;29;20210;-75
2022/06/27 01:59:52;;;;;;;13.48;12.43;;;;;;;;;;4937114;29;20205;-74
2022/06/27 02:02:21;;;;;;;13.13;11.93;;;;;;;;;;4936357;29;20643;-74
2022/06/27 02:04:50;;;;;;;13.82;12.63;;;;;;;;;;4936270;29;20223;-75
2022/06/27 02:07:18;;;;;;;13.73;12.45;;;;;;;;;;4936881;29;20214;-74
2022/06/27 02:09:47;;;;;;;14.25;12.85;;;;;;;;;;4936652;29;20676;-74
2022/06/27 02:12:22;;;;;;;13.32;12.23;;;;;;;;;;4936799;29;20211;-74
2022/06/27 02:14:53;;;;;;;12.93;11.77;;;;;;;;;;4936409;29;20238;-74
2022/06/27 02:17:22;;;;;;;12.57;11.55;;;;;;;;;;4936284;29;20246;-74
2022/06/27 02:19:51;;;;;;;12.75;11.70;;;;;;;;;;4936166;29;20214;-74
2022/06/27 02:22:20;;;;;;;11.93;10.85;;;;;;;;;;4936553;29;20258;-74
2022/06/27 02:24:48;;;;;;;12.30;11.10;;;;;;;;;;4936384;29;20223;-74
2022/06/27 02:27:17;;;;;;;12.05;11.02;;;;;;;;;;4936124;29;20731;-75
2022/06/27 02:29:45;;;;;;;13.43;12.23;;;;;;;;;;4935976;29;20676;-74
2022/06/27 02:32:15;;;;;;;12.57;11.38;;;;;;;;;;4917685;29;20200;-74
2022/06/27 02:34:44;;;;;;;13.63;12.23;;;;;;;;;;4917428;29;20287;-74
2022/06/27 02:37:13;;;;;;;15.07;13.68;;;;;;;;;;4917221;29;20217;-74
2022/06/27 02:39:42;;;;;;;15.48;13.93;;;;;;;;;;4916830;29;20204;-74
2022/06/27 02:42:10;;;;;;;15.10;13.57;;;;;;;;;;4917219;29;20275;-74
2022/06/27 02:44:40;;;;;;;16.95;15.35;;;;;;;;;;4920486;29;20226;-75
2022/06/27 02:47:08;;;;;;;16.73;15.25;;;;;;;;;;4935833;29;20203;-75
2022/06/27 02:49:38;;;;;;;18.08;16.38;;;;;;;;;;4936443;29;20294;-75
2022/06/27 02:52:11;;;;;;;17.85;16.20;;;;;;;;;;4936440;29;20203;-75
2022/06/27 02:54:42;;;;;;;17.60;16.10;;;;;;;;;;4935814;29;20238;-75
2022/06/27 02:57:20;;;;;;;18.73;17.00;;;;;;;;;;4917372;29;20263;-75
2022/06/27 02:59:50;;;;;;;17.65;16.10;;;;;;;;;;4925210;29;20234;-75
2022/06/27 03:02:19;;;;;;;17.88;16.13;;;;;;;;;;4936253;29;20378;-75
2022/06/27 03:04:49;;;;;;;17.40;15.80;;;;;;;;;;4936161;29;20227;-75
2022/06/27 03:07:17;;;;;;;17.83;16.08;;;;;;;;;;4936460;29;20266;-75
2022/06/27 03:09:46;;;;;;;18.25;16.65;;;;;;;;;;4935961;29;20270;-75
2022/06/27 03:12:14;;;;;;;19.13;17.33;;;;;;;;;;4935878;29;20262;-75
2022/06/27 03:14:42;;;;;;;17.90;16.20;;;;;;;;;;4935679;29;20234;-76
2022/06/27 03:17:11;;;;;;;18.17;16.50;;;;;;;;;;4936154;29;20239;-75
2022/06/27 03:19:39;;;;;;;18.17;16.55;;;;;;;;;;4936157;29;20211;-75
2022/06/27 03:22:10;;;;;;;17.60;16.10;;;;;;;;;;4935873;29;20223;-75
2022/06/27 03:24:39;;;;;;;17.65;15.95;;;;;;;;;;4936106;29;20227;-75
2022/06/27 03:27:07;;;;;;;17.50;15.90;;;;;;;;;;4935830;29;20255;-75
2022/06/27 03:29:35;;;;;;;17.27;15.63;;;;;;;;;;4935999;29;20273;-75
2022/06/27 03:32:04;;;;;;;16.75;15.30;;;;;;;;;;4936012;29;20203;-76
2022/06/27 03:34:33;;;;;;;16.90;15.40;;;;;;;;;;4935501;29;20239;-76
2022/06/27 03:37:01;;;;;;;17.02;15.52;;;;;;;;;;4936033;29;20608;-76
2022/06/27 03:39:32;;;;;;;16.67;15.18;;;;;;;;;;4936368;29;20203;-76
2022/06/27 03:42:00;;;;;;;15.25;13.95;;;;;;;;;;4935848;29;20227;-76
2022/06/27 03:44:29;;;;;;;16.73;15.23;;;;;;;;;;4935911;29;20242;-75
2022/06/27 03:46:58;;;;;;;15.20;13.80;;;;;;;;;;4936490;29;20258;-76
2022/06/27 03:52:12;;;;;;;16.42;15.00;;;;;;;;;;4935811;29;20191;-76
2022/06/27 03:54:42;;;;;;;16.08;14.50;;;;;;;;;;4935776;29;20258;-76
2022/06/27 03:57:11;;;;;;;16.17;14.77;;;;;;;;;;4918584;29;20231;-76
2022/06/27 03:59:39;;;;;;;14.93;13.63;;;;;;;;;;4938057;29;20617;-76
2022/06/27 04:02:09;;;;;;;15.93;14.50;;;;;;;;;;4939455;29;20700;-76
2022/06/27 04:04:37;;;;;;;15.60;14.10;;;;;;;;;;4939446;29;20274;-76
2022/06/27 04:07:06;;;;;;;15.35;13.95;;;;;;;;;;4939271;29;20618;-76
2022/06/27 04:09:34;;;;;;;16.75;15.13;;;;;;;;;;4938972;29;20217;-76
2022/06/27 04:12:05;;;;;;;16.67;15.07;;;;;;;;;;4939542;29;20262;-76
2022/06/27 04:14:33;;;;;;;16.13;14.52;;;;;;;;;;4939163;29;20286;-75
2022/06/27 04:17:03;;;;;;;16.88;15.25;;;;;;;;;;4939211;29;20243;-76
2022/06/27 04:19:31;;;;;;;17.35;15.52;;;;;;;;;;4939092;29;20207;-76
2022/06/27 04:21:59;;;;;;;17.33;15.70;;;;;;;;;;4938703;29;20290;-76
2022/06/27 04:24:28;;;;;;;17.65;15.65;;;;;;;;;;4938703;29;20285;-76
2022/06/27 04:26:57;;;;;;;18.15;16.25;;;;;;;;;;4938987;29;20212;-76
2022/06/27 04:29:28;;;;;;;17.70;16.17;;;;;;;;;;4938948;29;20838;-76
2022/06/27 04:31:57;;;;;;;18.27;16.63;;;;;;;;;;4939008;29;20607;-76
2022/06/27 04:34:26;;;;;;;19.55;17.77;;;;;;;;;;4938603;29;20238;-76
2022/06/27 04:36:55;;;;;;;20.35;18.55;;;;;;;;;;4938843;29;20610;-76
2022/06/27 04:39:23;;;;;;;19.92;18.02;;;;;;;;;;4938872;29;20215;-76
2022/06/27 04:41:52;;;;;;;20.13;18.42;;;;;;;;;;4937821;29;20223;-76
2022/06/27 04:44:20;;;;;;;20.90;18.95;;;;;;;;;;4938587;29;20637;-76
2022/06/27 04:47:07;;;;;;;20.52;18.52;;;;;;;;;;4938594;29;20687;-76
2022/06/27 04:49:37;;;;;;;19.88;17.92;;;;;;;;;;4938561;29;20207;-76
2022/06/27 04:52:07;;;;;;;20.38;18.40;;;;;;;;;;4938466;29;20196;-76
2022/06/27 04:54:36;;;;;;;20.80;18.85;;;;;;;;;;4938526;29;20606;-76
2022/06/27 04:57:08;;;;;;;22.15;19.95;;;;;;;;;;4937178;29;20262;-76
2022/06/27 04:59:38;;;;;;;23.90;21.50;;;;;;;;;;4920964;29;20233;-76
2022/06/27 05:02:07;;;;;;;24.90;22.30;;;;;;;;;;4938336;29;20230;-76
2022/06/27 05:04:37;;;;;;;24.42;21.85;;;;;;;;;;4937983;29;20236;-76
2022/06/27 05:07:06;;;;;;;24.50;22.10;;;;;;;;;;4938318;29;20236;-76
2022/06/27 05:09:34;;;;;;;23.77;21.38;;;;;;;;;;4938188;29;20215;-76
2022/06/27 05:12:03;;;;;;;24.17;21.63;;;;;;;;;;4937305;29;20207;-76
2022/06/27 05:14:31;;;;;;;22.23;20.00;;;;;;;;;;4937478;29;20237;-76
2022/06/27 05:17:00;;;;;;;23.13;20.73;;;;;;;;;;4938153;29;20735;-76
2022/06/27 05:19:28;;;;;;;23.80;21.30;;;;;;;;;;4938182;29;20211;-76
2022/06/27 05:21:58;;;;;;;22.60;20.40;;;;;;;;;;4937801;29;20272;-76
2022/06/27 05:24:26;;;;;;;22.08;19.88;;;;;;;;;;4938205;29;20703;-75
2022/06/27 05:26:55;;;;;;;23.55;21.27;;;;;;;;;;4938104;29;20275;-76
2022/06/27 05:29:24;;;;;;;23.23;20.90;;;;;;;;;;4918870;29;20582;-76
2022/06/27 05:31:52;;;;;;;22.98;20.67;;;;;;;;;;4918545;29;20660;-76
2022/06/27 05:34:27;;;;;;;22.85;20.65;;;;;;;;;;4918611;29;20231;-76
2022/06/27 05:36:56;;;;;;;23.80;21.30;;;;;;;;;;4930412;29;20207;-76
2022/06/27 05:39:25;;;;;;;23.98;21.45;;;;;;;;;;4937699;29;20235;-76
2022/06/27 05:41:54;;;;;;;23.42;21.00;;;;;;;;;;4937282;29;20226;-76
2022/06/27 05:44:24;;;;;;;24.38;21.83;;;;;;;;;;4937445;29;20274;-76
2022/06/27 05:46:53;;;;;;;24.08;21.65;;;;;;;;;;4937424;29;20215;-76
2022/06/27 05:49:22;;;;;;;23.17;20.77;;;;;;;;;;4936860;29;20274;-77
2022/06/27 05:51:54;;;;;;;23.48;21.20;;;;;;;;;;4937023;29;20716;-76
2022/06/27 05:54:25;;;;;;;22.42;20.17;;;;;;;;;;4936793;29;20239;-76
2022/06/27 05:56:56;;;;;;;23.58;21.15;;;;;;;;;;4920164;29;20577;-76
2022/06/27 05:59:24;;;;;;;22.52;20.42;;;;;;;;;;4917846;29;20192;-76
2022/06/27 06:01:53;;;;;;;22.45;20.27;;;;;;;;;;4918232;29;20208;-76
2022/06/27 06:04:22;;;;;;;21.90;19.70;;;;;;;;;;4918290;29;20634;-76
2022/06/27 06:06:51;;;;;;;20.85;18.83;;;;;;;;;;4918005;29;20370;-76
2022/06/27 06:09:19;;;;;;;22.77;20.13;;;;;;;;;;4918171;29;20691;-76
2022/06/27 06:11:48;;;;;;;23.38;21.15;;;;;;;;;;4918119;29;20259;-76
2022/06/27 06:14:19;;;;;;;24.58;22.13;;;;;;;;;;4917993;29;20220;-76
2022/06/27 06:16:48;;;;;;;23.67;21.23;;;;;;;;;;4918130;29;20197;-76
2022/06/27 06:19:17;;;;;;;25.00;22.40;;;;;;;;;;4917404;29;20212;-75
2022/06/27 06:21:45;;;;;;;25.23;22.52;;;;;;;;;;4936332;29;20609;-76
2022/06/27 06:24:14;;;;;;;28.95;23.85;;;;;;;;;;4936781;29;20635;-76
2022/06/27 06:26:45;;;;;;;28.08;23.05;;;;;;;;;;4921199;29;20616;-75
2022/06/27 06:29:15;;;;;;;26.00;23.13;;;;;;;;;;4917471;29;20196;-76
2022/06/27 06:31:56;;;;;;;28.05;23.17;;;;;;;;;;4917620;29;20218;-76
2022/06/27 06:34:33;;;;;;;27.75;24.70;;;;;;;;;;4895499;29;20240;-76
2022/06/27 06:37:02;;;;;;;30.23;24.45;;;;;;;;;;4898791;29;20208;-76
2022/06/27 06:39:41;;;;;;;29.45;24.45;;;;;;;;;;4899093;29;20192;-76
2022/06/27 06:42:11;;;;;;;28.25;23.75;;;;;;;;;;4898475;29;20209;-76
2022/06/27 06:44:39;;;;;;;30.88;24.67;;;;;;;;;;4912179;29;20266;-76
2022/06/27 06:47:10;;;;;;;27.85;24.88;;;;;;;;;;4919249;29;20628;-76
2022/06/27 06:49:39;;;;;;;34.35;25.70;;;;;;;;;;4917371;29;20211;-76
2022/06/27 06:52:08;;;;;;;30.05;25.08;;;;;;;;;;4917209;29;20267;-76
2022/06/27 06:54:37;;;;;;;29.85;25.35;;;;;;;;;;4922322;29;20700;-76
2022/06/27 06:57:06;;;;;;;28.58;24.92;;;;;;;;;;4936430;29;20206;-76
2022/06/27 06:59:35;;;;;;;30.67;25.38;;;;;;;;;;4936430;29;20215;-76
2022/06/27 07:02:04;;;;;;;28.40;24.63;;;;;;;;;;4936133;29;20703;-76
2022/06/27 07:04:34;;;;;;;29.77;24.98;;;;;;;;;;4936318;29;20234;-76
2022/06/27 07:07:03;;;;;;;29.05;24.63;;;;;;;;;;4936727;29;20594;-76
2022/06/27 07:09:32;;;;;;;30.65;24.90;;;;;;;;;;4936002;29;20219;-75
2022/06/27 07:12:02;;;;;;;28.15;24.30;;;;;;;;;;4936167;29;20266;-76
2022/06/27 07:14:31;;;;;;;27.92;25.02;;;;;;;;;;4936067;29;20230;-76
2022/06/27 07:16:59;;;;;;;30.27;24.65;;;;;;;;;;4936209;29;20673;-76
2022/06/27 07:19:29;;;;;;;28.33;23.63;;;;;;;;;;4935948;29;20206;-76
2022/06/27 07:21:59;;;;;;;26.10;23.30;;;;;;;;;;4936309;29;20203;-76
2022/06/27 07:24:28;;;;;;;26.48;23.58;;;;;;;;;;4935742;29;20230;-76
2022/06/27 07:26:59;;;;;;;26.17;23.30;;;;;;;;;;4935970;29;20203;-77
2022/06/27 07:29:27;;;;;;;26.75;24.02;;;;;;;;;;4936058;29;20191;-76
2022/06/27 07:31:56;;;;;;;25.73;22.55;;;;;;;;;;4919194;29;20219;-76
2022/06/27 07:34:25;;;;;;;25.60;23.00;;;;;;;;;;4920622;29;20216;-77
2022/06/27 07:36:56;;;;;;;29.42;24.70;;;;;;;;;;4920998;29;20223;-77
2022/06/27 07:39:26;;;;;;;27.02;24.20;;;;;;;;;;4920597;29;20192;-77
2022/06/27 07:41:55;;;;;;;27.33;24.52;;;;;;;;;;4921084;29;20626;-76
2022/06/27 07:44:24;;;;;;;27.73;24.85;;;;;;;;;;4920707;29;20688;-77
2022/06/27 07:46:57;;;;;;;28.15;25.38;;;;;;;;;;4920367;29;20215;-77
2022/06/27 07:49:26;;;;;;;31.48;27.70;;;;;;;;;;4922298;29;20740;-77
2022/06/27 07:51:56;;;;;;;32.78;29.23;;;;;;;;;;4920296;29;20255;-76
2022/06/27 07:54:27;;;;;;;34.17;30.58;;;;;;;;;;4919923;29;20243;-76
2022/06/27 07:56:55;;;;;;;36.95;33.35;;;;;;;;;;4937264;29;20210;-76
2022/06/27 07:59:32;;;;;;;38.88;34.72;;;;;;;;;;4938643;29;20881;-76
2022/06/27 08:02:00;;;;;;;41.50;34.92;;;;;;;;;;4939473;29;20218;-76
2022/06/27 08:04:29;;;;;;;42.80;36.67;;;;;;;;;;4938927;29;20719;-76
2022/06/27 08:06:57;;;;;;;41.35;36.72;;;;;;;;;;4938925;29;20231;-76
2022/06/27 08:09:29;;;;;;;43.38;38.72;;;;;;;;;;4939423;29;20340;-76
2022/06/27 08:11:58;;;;;;;39.45;34.13;;;;;;;;;;4939110;29;20262;-75
2022/06/27 08:14:27;;;;;;;39.60;34.72;;;;;;;;;;4937972;29;20283;-76
2022/06/27 08:16:56;;;;;;;38.00;34.00;;;;;;;;;;4939072;29;20270;-75
2022/06/27 08:19:24;;;;;;;36.38;32.58;;;;;;;;;;4938741;29;20211;-76
2022/06/27 08:21:53;;;;;;;35.72;31.30;;;;;;;;;;4938758;29;20645;-76
2022/06/27 08:24:21;;;;;;;35.60;31.73;;;;;;;;;;4938546;29;20235;-76
2022/06/27 08:26:52;;;;;;;38.17;34.22;;;;;;;;;;4938656;29;20215;-76
2022/06/27 08:29:21;;;;;;;37.10;33.30;;;;;;;;;;4938326;29;20207;-76
2022/06/27 08:31:52;;;;;;;38.28;34.20;;;;;;;;;;4938487;29;20214;-76
2022/06/27 08:34:22;;;;;;;36.10;32.22;;;;;;;;;;4938700;29;20314;-76
2022/06/27 08:36:51;;;;;;;34.20;30.38;;;;;;;;;;4938633;29;20259;-75
2022/06/27 08:39:20;;;;;;;33.55;29.92;;;;;;;;;;4938479;29;20214;-76
2022/06/27 08:41:48;;;;;;;35.13;30.50;;;;;;;;;;4938762;29;20681;-75
2022/06/27 08:44:19;;;;;;;33.72;29.88;;;;;;;;;;4936777;29;20227;-76
2022/06/27 08:46:47;;;;;;;33.45;29.25;;;;;;;;;;4937939;29;20215;-75
2022/06/27 08:49:16;;;;;;;35.13;31.08;;;;;;;;;;4938426;29;20211;-75
2022/06/27 08:51:45;;;;;;;34.55;30.88;;;;;;;;;;4938098;29;20211;-76
2022/06/27 08:54:14;;;;;;;33.83;29.88;;;;;;;;;;4937924;29;20234;-76
2022/06/27 08:56:43;;;;;;;33.92;30.20;;;;;;;;;;4937621;29;20249;-76
2022/06/27 08:59:12;;;;;;;37.63;31.63;;;;;;;;;;4938344;29;20707;-76
2022/06/27 09:01:48;;;;;;;37.33;31.73;;;;;;;;;;4936445;29;20218;-76
2022/06/27 09:04:17;;;;;;;35.80;31.35;;;;;;;;;;4937819;29;20235;-76
2022/06/27 09:06:56;;;;;;;40.22;30.42;;;;;;;;;;4938329;29;20210;-75
2022/06/27 09:09:27;;;;;;;36.45;28.92;;;;;;;;;;4938157;29;20211;-76
2022/06/27 09:11:56;;;;;;;35.78;30.40;;;;;;;;;;4938167;29;20302;-76
2022/06/27 09:14:32;;;;;;;31.85;27.63;;;;;;;;;;4937413;29;20276;-76
2022/06/27 09:17:04;;;;;;;35.00;29.25;;;;;;;;;;4937942;29;20289;-76
2022/06/27 09:19:46;;;;;;;37.85;31.67;;;;;;;;;;4937996;29;20207;-76
2022/06/27 09:22:16;;;;;;;33.08;29.45;;;;;;;;;;4937818;29;20203;-76
2022/06/27 09:25:05;;;;;;;34.17;29.90;;;;;;;;;;4937719;29;20266;-76
2022/06/27 09:27:38;;;;;;;35.17;28.65;;;;;;;;;;4937672;29;20237;-75
2022/06/27 09:30:23;;;;;;;33.70;28.80;;;;;;;;;;4936864;29;20233;-76
2022/06/27 09:32:54;;;;;;;34.60;27.95;;;;;;;;;;4937510;29;20266;-76
2022/06/27 09:35:24;;;;;;;31.17;26.88;;;;;;;;;;4937275;29;20223;-76
2022/06/27 09:37:53;;;;;;;29.50;26.42;;;;;;;;;;4937729;29;20231;-76
2022/06/27 09:40:23;;;;;;;30.08;26.90;;;;;;;;;;4937363;29;20262;-76
2022/06/27 09:42:54;;;;;;;30.70;26.25;;;;;;;;;;4937560;29;20611;-76
2022/06/27 09:45:25;;;;;;;32.08;27.10;;;;;;;;;;4935855;29;20227;-75
2022/06/27 09:47:59;;;;;;;28.70;25.73;;;;;;;;;;4938117;29;20253;-76
2022/06/27 09:50:29;;;;;;;29.35;26.35;;;;;;;;;;4937480;29;20211;-76
2022/06/27 09:52:59;;;;;;;31.50;28.30;;;;;;;;;;4937524;29;20637;-76
2022/06/27 09:55:28;;;;;;;27.38;24.30;;;;;;;;;;4936124;29;20731;-76
2022/06/27 09:57:57;;;;;;;28.95;25.90;;;;;;;;;;4935523;29;20218;-76
2022/06/27 10:00:25;;;;;;;29.70;24.58;;;;;;;;;;4934726;29;20217;-76
2022/06/27 10:03:01;;;;;;;27.83;24.98;;;;;;;;;;4936230;29;20199;-76
2022/06/27 10:05:31;;;;;;;27.35;24.10;;;;;;;;;;4935837;29;20270;-76
2022/06/27 10:08:00;;;;;;;28.35;25.52;;;;;;;;;;4936200;29;20211;-76
2022/06/27 10:10:29;;;;;;;27.52;24.65;;;;;;;;;;4936145;29;20206;-76
2022/06/27 10:12:59;;;;;;;29.13;26.05;;;;;;;;;;4936197;29;20215;-76
2022/06/27 10:15:29;;;;;;;27.67;24.77;;;;;;;;;;4935126;29;20278;-75
2022/06/27 10:18:06;;;;;;;31.67;25.75;;;;;;;;;;5152891;27;20572;-75
2022/06/27 10:20:36;;;;;;;27.98;24.85;;;;;;;;;;5152363;27;20598;-75
2022/06/27 10:23:26;;;;;;;30.85;27.55;;;;;;;;;;5152036;27;20204;-75
2022/06/27 10:25:56;;;;;;;31.25;28.02;;;;;;;;;;5169925;27;20271;-75
2022/06/27 10:28:24;;;;;;;31.25;28.05;;;;;;;;;;5168148;27;20278;-77
2022/06/27 10:30:54;;;;;;;29.98;26.77;;;;;;;;;;5152119;27;20203;-77
2022/06/27 10:33:42;;;;;;;29.25;26.25;;;;;;;;;;5152138;27;20200;-77
2022/06/27 10:36:18;;;;;;;27.33;24.52;;;;;;;;;;5151716;27;20224;-77
2022/06/27 10:38:49;;;;;;;27.30;24.45;;;;;;;;;;5151957;27;20692;-77
2022/06/27 10:41:36;;;;;;;26.05;23.40;;;;;;;;;;5153418;27;20190;-80
2022/06/27 10:44:06;;;;;;;28.10;25.20;;;;;;;;;;5154797;27;20636;-78
2022/06/27 10:46:45;;;;;;;26.65;23.77;;;;;;;;;;5157497;27;20555;-80
2022/06/27 10:49:22;;;;;;;30.10;25.42;;;;;;;;;;5175887;27;20247;-80
2022/06/27 10:51:51;;;;;;;29.75;25.95;;;;;;;;;;5175729;27;20179;-80
2022/06/27 10:54:20;;;;;;;28.90;25.80;;;;;;;;;;5174863;27;20310;-77
2022/06/27 10:56:49;;;;;;;31.67;28.13;;;;;;;;;;5176649;27;20211;-80
2022/06/27 10:59:55;;;;;;;30.98;27.58;;;;;;;;;;5175110;27;20528;-80
2022/06/27 11:02:27;;;;;;;29.75;26.55;;;;;;;;;;5069957;28;20190;-80
2022/06/27 11:04:57;;;;;;;28.73;25.80;;;;;;;;;;5154510;27;20560;-80
2022/06/27 11:07:26;;;;;;;32.17;28.70;;;;;;;;;;5174023;27;20248;-80
2022/06/27 11:09:55;;;;;;;29.17;25.95;;;;;;;;;;5173655;27;20207;-80
2022/06/27 11:12:28;;;;;;;28.88;25.80;;;;;;;;;;5173576;27;20212;-80
2022/06/27 11:14:58;;;;;;;27.38;24.45;;;;;;;;;;5174298;27;20287;-80
2022/06/27 11:17:34;;;;;;;28.52;25.45;;;;;;;;;;5174662;27;20215;-80
2022/06/27 11:20:17;;;;;;;30.27;24.83;;;;;;;;;;5175596;27;20542;-80
2022/06/27 11:23:08;;;;;;;32.42;25.38;;;;;;;;;;5174587;27;20226;-80
2022/06/27 11:25:41;;;;;;;28.98;25.92;;;;;;;;;;5175016;27;20231;-81
2022/06/27 11:33:43;;;;;;;29.50;26.00;;;;;;;;;;5159799;27;20184;-80
2022/06/27 11:36:14;;;;;;;30.92;27.67;;;;;;;;;;5160194;27;20224;-80
2022/06/27 11:38:44;;;;;;;35.90;31.10;;;;;;;;;;5160630;27;20193;-78
2022/06/27 11:52:15;;;;;;;43.15;34.35;;;;;;;;;;4950792;28;20226;-78
2022/06/27 11:54:46;;;;;;;40.15;32.88;;;;;;;;;;4941392;29;20713;-78
2022/06/27 11:57:24;;;;;;;39.15;34.88;;;;;;;;;;4957698;28;20211;-78
2022/06/27 11:59:53;;;;;;;67.57;43.78;;;;;;;;;;4946626;28;20577;-79
2022/06/27 12:02:30;;;;;;;79.00;47.60;;;;;;;;;;4952234;29;20207;-78
2022/06/27 12:05:06;;;;;;;56.03;43.70;;;;;;;;;;4958002;28;20598;-79
2022/06/27 12:07:50;;;;;;;36.22;31.30;;;;;;;;;;4957775;28;20202;-79
2022/06/27 12:10:34;;;;;;;57.17;42.78;;;;;;;;;;4957233;28;20208;-79
2022/06/27 12:13:03;;;;;;;66.00;44.55;;;;;;;;;;4957581;28;20270;-79
2022/06/27 12:15:32;;;;;;;49.45;39.20;;;;;;;;;;4956744;28;20237;-79
2022/06/27 12:18:02;;;;;;;60.03;53.10;;;;;;;;;;4957107;29;20233;-79
2022/06/27 12:20:32;;;;;;;36.63;32.72;;;;;;;;;;4957497;28;20210;-79
2022/06/27 12:23:01;;;;;;;49.55;44.65;;;;;;;;;;4957033;28;20201;-79
2022/06/27 12:25:35;;;;;;;35.17;31.35;;;;;;;;;;4956979;29;20235;-78
2022/06/27 12:28:05;;;;;;;32.65;29.17;;;;;;;;;;4957640;29;20250;-79
2022/06/27 12:30:34;;;;;;;85.10;77.18;;;;;;;;;;4956688;29;20202;-78
2022/06/27 12:33:02;;;;;;;51.85;41.63;;;;;;;;;;4957090;28;20758;-79
2022/06/27 12:35:31;;;;;;;33.35;29.75;;;;;;;;;;4956803;28;20230;-79
2022/06/27 12:38:00;;;;;;;54.25;41.30;;;;;;;;;;4956948;28;20594;-79
2022/06/27 12:40:29;;;;;;;35.28;31.17;;;;;;;;;;4955765;28;20206;-79
2022/06/27 12:43:04;;;;;;;35.53;30.17;;;;;;;;;;4956797;28;20229;-78
2022/06/27 12:45:33;;;;;;;33.05;28.90;;;;;;;;;;4956505;28;20281;-78
2022/06/27 12:48:03;;;;;;;32.03;28.63;;;;;;;;;;4956413;28;20207;-78
2022/06/27 12:50:32;;;;;;;30.70;27.55;;;;;;;;;;4954391;29;20215;-78
2022/06/27 12:53:00;;;;;;;30.45;27.25;;;;;;;;;;4956305;29;20622;-78
2022/06/27 12:55:29;;;;;;;30.80;27.67;;;;;;;;;;4956459;28;20285;-78
2022/06/27 12:57:57;;;;;;;29.33;26.42;;;;;;;;;;4956570;28;20300;-79
2022/06/27 13:00:27;;;;;;;30.45;27.38;;;;;;;;;;4956379;29;20210;-79
2022/06/27 13:02:56;;;;;;;30.05;26.95;;;;;;;;;;4956041;28;20206;-79
2022/06/27 13:05:31;;;;;;;29.48;26.40;;;;;;;;;;4954985;29;20320;-78
2022/06/27 13:08:00;;;;;;;30.00;26.80;;;;;;;;;;4942812;28;20196;-78
2022/06/27 13:10:29;;;;;;;31.33;28.08;;;;;;;;;;4935473;29;20203;-78
2022/06/27 13:12:58;;;;;;;33.75;29.80;;;;;;;;;;4935249;29;20207;-78
2022/06/27 13:15:29;;;;;;;32.88;29.25;;;;;;;;;;4935218;29;20239;-78
2022/06/27 13:17:58;;;;;;;31.85;28.48;;;;;;;;;;4935395;29;20603;-78
2022/06/27 13:20:27;;;;;;;32.05;28.58;;;;;;;;;;4946866;29;20222;-78
2022/06/27 13:22:56;;;;;;;32.25;28.95;;;;;;;;;;4953706;28;20206;-78
2022/06/27 13:25:26;;;;;;;31.05;27.83;;;;;;;;;;4954070;28;20289;-78
2022/06/27 13:27:55;;;;;;;30.27;27.08;;;;;;;;;;4953715;28;20206;-78
2022/06/27 13:30:24;;;;;;;27.38;24.48;;;;;;;;;;4954275;28;20269;-78
2022/06/27 13:32:54;;;;;;;27.08;24.38;;;;;;;;;;4954726;29;20222;-78
2022/06/27 13:35:23;;;;;;;26.70;23.20;;;;;;;;;;4952279;28;20236;-78
2022/06/27 13:37:51;;;;;;;28.25;25.13;;;;;;;;;;4953984;28;20214;-77
2022/06/27 13:40:20;;;;;;;27.67;24.77;;;;;;;;;;4952527;29;20211;-76
2022/06/27 13:42:48;;;;;;;29.15;25.88;;;;;;;;;;4952758;29;20234;-77
2022/06/27 13:45:17;;;;;;;28.80;25.58;;;;;;;;;;4952896;28;20226;-76
2022/06/27 13:47:45;;;;;;;29.02;26.10;;;;;;;;;;4951430;28;20277;-76
2022/06/27 13:50:15;;;;;;;30.15;26.88;;;;;;;;;;4953004;28;20228;-76
2022/06/27 13:52:44;;;;;;;29.27;26.10;;;;;;;;;;4953045;28;20269;-76
2022/06/27 13:55:12;;;;;;;29.17;26.08;;;;;;;;;;4952987;29;20602;-77
2022/06/27 13:57:42;;;;;;;29.75;26.70;;;;;;;;;;4952793;28;20273;-77
2022/06/27 14:00:30;;;;;;;29.27;26.23;;;;;;;;;;4952811;28;20683;-76
2022/06/27 14:02:59;;;;;;;29.02;25.88;;;;;;;;;;4950905;28;20603;-76
2022/06/27 14:05:31;;;;;;;29.45;26.30;;;;;;;;;;4685010;28;10000927;-76
2022/06/27 14:08:00;;;;;;;31.20;27.80;;;;;;;;;;4952609;28;20819;-77
2022/06/27 14:10:29;;;;;;;29.40;26.30;;;;;;;;;;4952507;28;20213;-77
2022/06/27 14:12:58;;;;;;;29.15;25.95;;;;;;;;;;4952548;28;20616;-77
2022/06/27 14:15:26;;;;;;;33.05;27.00;;;;;;;;;;4952669;28;20245;-77
2022/06/27 14:17:55;;;;;;;27.67;24.75;;;;;;;;;;4953825;28;20206;-78
2022/06/27 14:20:24;;;;;;;29.52;26.52;;;;;;;;;;4955123;28;20589;-76
2022/06/27 14:22:54;;;;;;;30.55;27.30;;;;;;;;;;4955085;29;20214;-76
2022/06/27 14:25:24;;;;;;;29.27;26.13;;;;;;;;;;4955046;28;20664;-76
2022/06/27 14:27:52;;;;;;;31.40;28.17;;;;;;;;;;4955089;28;20626;-76
2022/06/27 14:30:20;;;;;;;31.52;28.40;;;;;;;;;;4954549;28;20210;-76
2022/06/27 14:32:49;;;;;;;30.52;27.42;;;;;;;;;;4954275;29;20218;-76
2022/06/27 14:35:39;;;;;;;31.70;28.20;;;;;;;;;;4955140;29;20624;-75
2022/06/27 14:38:09;;;;;;;30.15;27.10;;;;;;;;;;4955098;28;20215;-76
2022/06/27 14:40:38;;;;;;;28.67;25.85;;;;;;;;;;4955021;29;20574;-77
2022/06/27 14:43:06;;;;;;;30.25;27.23;;;;;;;;;;4955219;28;20635;-76
2022/06/27 14:45:35;;;;;;;29.48;26.35;;;;;;;;;;4954137;29;20226;-77
2022/06/27 14:48:03;;;;;;;30.33;27.30;;;;;;;;;;4955307;29;20206;-77
2022/06/27 14:50:32;;;;;;;27.98;25.15;;;;;;;;;;4954980;28;20218;-77
2022/06/27 14:53:00;;;;;;;26.63;23.90;;;;;;;;;;4952994;28;20214;-77